Time;durP1;ratioP1;P1;durP2;ratioP2;P2;SDS_P1;SDS_P2;PMS_P1;PMS_P2;Temp;Humidity;BMP_temperature;BMP_pressure;BME280_temperature;BME280_humidity;BME280_pressure;Samples;Min_cycle;Max_cycle;Signal;HPM_P1;HPM_P2
2022/01/10 00:01:31;;;;;;;5.53;4.70;;;19.80;80.60;;;;;;4931627;28;98466;-62
2022/01/10 00:04:01;;;;;;;5.32;4.28;;;19.80;80.40;;;;;;4921152;28;96017;-61
2022/01/10 00:06:33;;;;;;;7.40;4.80;;;19.80;80.50;;;;;;4930773;28;96038;-60
2022/01/10 00:09:05;;;;;;;6.13;5.07;;;19.90;80.60;;;;;;4929782;28;95724;-62
2022/01/10 00:11:36;;;;;;;8.20;5.10;;;19.90;80.20;;;;;;4928969;28;95763;-60
2022/01/10 00:14:08;;;;;;;4.93;4.25;;;20.00;80.20;;;;;;4928929;28;95998;-59
2022/01/10 00:16:39;;;;;;;6.38;4.85;;;20.00;79.90;;;;;;4930939;28;95934;-61
2022/01/10 00:19:12;;;;;;;4.88;3.92;;;20.10;79.80;;;;;;4948850;28;96113;-60
2022/01/10 00:21:43;;;;;;;5.63;4.55;;;20.10;79.50;;;;;;4947228;28;95299;-60
2022/01/10 00:24:16;;;;;;;5.10;3.55;;;20.20;80.00;;;;;;4947767;28;96472;-61
2022/01/10 00:26:47;;;;;;;4.65;4.15;;;20.20;79.20;;;;;;4949940;28;96003;-61
2022/01/10 00:29:18;;;;;;;5.22;4.20;;;20.20;79.00;;;;;;4949507;28;95911;-61
2022/01/10 00:31:49;;;;;;;5.60;4.00;;;20.30;78.80;;;;;;4941655;28;95962;-60
2022/01/10 00:34:19;;;;;;;4.35;3.58;;;20.30;77.30;;;;;;4945581;28;96237;-60
2022/01/10 00:36:50;;;;;;;4.10;3.70;;;20.40;78.50;;;;;;4963692;28;98819;-59
2022/01/10 00:39:21;;;;;;;5.25;4.03;;;20.40;78.30;;;;;;4950626;28;95846;-59
2022/01/10 00:41:51;;;;;;;4.07;3.70;;;20.40;78.10;;;;;;4949369;28;95279;-59
2022/01/10 00:44:25;;;;;;;4.50;3.92;;;20.50;77.90;;;;;;4948698;28;96615;-59
2022/01/10 00:46:56;;;;;;;3.88;3.58;;;20.50;77.70;;;;;;4940552;28;96074;-61
2022/01/10 00:49:28;;;;;;;4.28;3.90;;;20.60;77.60;;;;;;4950404;28;96388;-61
2022/01/10 00:52:00;;;;;;;4.40;3.92;;;20.60;77.40;;;;;;4948790;28;95602;-60
2022/01/10 00:54:32;;;;;;;5.07;3.72;;;20.60;77.30;;;;;;4948068;28;98445;-61
2022/01/10 00:57:04;;;;;;;4.25;3.58;;;20.70;77.10;;;;;;4948210;28;95918;-60
2022/01/10 00:59:36;;;;;;;3.72;3.13;;;20.80;76.80;;;;;;4952153;28;95413;-61
2022/01/10 01:02:06;;;;;;;3.30;3.00;;;20.80;76.70;;;;;;4934195;28;98586;-60
2022/01/10 01:04:36;;;;;;;5.45;3.67;;;20.80;76.50;;;;;;4939743;28;96114;-62
2022/01/10 01:07:06;;;;;;;5.13;4.18;;;20.90;76.40;;;;;;4964599;28;97208;-62
2022/01/10 01:09:41;;;;;;;3.78;3.30;;;20.90;76.20;;;;;;4964403;28;95806;-61
2022/01/10 01:12:35;;;;;;;4.10;3.30;;;21.00;76.10;;;;;;4941010;28;95783;-62
2022/01/10 01:15:17;;;;;;;3.93;3.13;;;21.00;75.90;;;;;;4961264;28;98879;-60
2022/01/10 01:25:50;;;;;;;3.20;2.92;;;21.20;75.20;;;;;;4951308;28;95763;-62
2022/01/10 01:28:21;;;;;;;3.65;3.08;;;21.20;74.90;;;;;;4949281;28;98477;-63
2022/01/10 01:30:52;;;;;;;4.22;3.42;;;21.30;75.00;;;;;;4938246;28;96790;-63
2022/01/10 01:33:24;;;;;;;3.03;2.80;;;21.30;74.70;;;;;;4928078;28;95774;-62
2022/01/10 01:35:54;;;;;;;3.17;2.88;;;21.30;74.50;;;;;;4927178;28;98552;-62
2022/01/10 01:38:25;;;;;;;3.80;3.00;;;21.40;74.50;;;;;;4940899;28;97394;-62
2022/01/10 01:41:11;;;;;;;3.00;2.70;;;21.40;74.20;;;;;;4917753;28;95881;-59
2022/01/10 01:43:42;;;;;;;2.75;2.55;;;21.40;74.10;;;;;;4930227;28;95258;-62
2022/01/10 01:46:14;;;;;;;3.65;2.72;;;21.50;73.90;;;;;;4927756;28;98313;-62
2022/01/10 01:48:46;;;;;;;4.20;3.00;;;21.50;73.70;;;;;;4947217;28;97672;-64
2022/01/10 01:51:21;;;;;;;3.88;3.38;;;21.60;73.80;;;;;;4946917;28;95712;-62
2022/01/10 01:53:53;;;;;;;3.03;2.72;;;21.60;73.50;;;;;;4942292;28;96173;-60
2022/01/10 01:56:25;;;;;;;3.55;2.85;;;21.60;73.40;;;;;;4945750;28;96321;-60
2022/01/10 01:58:56;;;;;;;3.50;2.90;;;21.70;73.40;;;;;;4945777;28;95934;-63
2022/01/10 02:01:28;;;;;;;3.38;2.75;;;21.70;73.20;;;;;;4936673;28;98930;-63
2022/01/10 02:03:59;;;;;;;5.07;3.00;;;21.80;73.00;;;;;;4933388;28;96003;-63
2022/01/10 02:06:32;;;;;;;4.05;2.63;;;21.80;73.00;;;;;;4948012;28;96177;-59
2022/01/10 02:09:04;;;;;;;3.70;3.30;;;21.90;72.80;;;;;;4961281;28;97269;-63
2022/01/10 02:11:35;;;;;;;2.55;2.35;;;21.90;72.70;;;;;;4944506;28;95392;-64
2022/01/10 02:14:06;;;;;;;3.47;2.67;;;22.00;72.50;;;;;;4939961;28;95432;-63
2022/01/10 02:16:52;;;;;;;3.22;2.83;;;22.00;73.10;;;;;;4937527;28;96374;-63
2022/01/10 02:19:54;;;;;;;3.13;2.65;;;22.00;72.20;;;;;;4967304;28;95772;-63
2022/01/10 02:22:28;;;;;;;2.60;2.40;;;22.10;72.10;;;;;;4936179;28;96110;-60
2022/01/10 02:25:21;;;;;;;3.33;3.03;;;22.10;71.90;;;;;;4946452;28;96137;-59
2022/01/10 02:27:54;;;;;;;2.97;2.70;;;22.10;71.80;;;;;;4932871;28;96437;-59
2022/01/10 02:30:24;;;;;;;2.70;2.50;;;22.20;71.60;;;;;;4934840;28;98572;-64
2022/01/10 02:32:57;;;;;;;2.70;2.47;;;22.30;71.60;;;;;;4932336;28;95870;-63
2022/01/10 02:35:33;;;;;;;3.25;2.53;;;22.30;71.50;;;;;;4925990;28;95475;-60
2022/01/10 02:38:04;;;;;;;3.08;2.60;;;22.30;71.20;;;;;;4946706;28;96607;-63
2022/01/10 02:40:36;;;;;;;3.17;2.60;;;22.40;71.20;;;;;;4961871;28;97260;-61
2022/01/10 02:43:08;;;;;;;3.38;2.50;;;22.40;71.10;;;;;;4947739;28;95691;-63
2022/01/10 02:45:38;;;;;;;3.42;2.80;;;22.50;71.00;;;;;;4950025;28;98024;-63
2022/01/10 02:48:12;;;;;;;2.33;2.13;;;22.50;70.90;;;;;;4945507;28;96657;-61
2022/01/10 02:50:45;;;;;;;2.67;2.42;;;22.50;70.70;;;;;;4960701;28;97383;-63
2022/01/10 02:53:19;;;;;;;2.80;2.60;;;22.60;70.70;;;;;;4947103;28;95530;-61
2022/01/10 02:55:51;;;;;;;2.53;2.33;;;22.60;70.50;;;;;;4945084;28;96030;-62
2022/01/10 02:58:23;;;;;;;2.85;2.58;;;22.70;70.50;;;;;;4944524;28;97294;-59
2022/01/10 03:00:59;;;;;;;4.35;3.15;;;22.70;70.30;;;;;;4949758;28;99898;-61
2022/01/10 03:03:30;;;;;;;2.38;2.17;;;22.70;70.30;;;;;;4950593;28;95448;-60
2022/01/10 03:06:02;;;;;;;2.55;2.35;;;22.80;70.20;;;;;;4960013;28;95812;-58
2022/01/10 03:08:34;;;;;;;2.50;2.03;;;22.80;70.10;;;;;;4947956;28;96046;-61
2022/01/10 03:11:07;;;;;;;3.10;2.80;;;22.80;70.10;;;;;;4945784;28;97394;-63
2022/01/10 03:13:38;;;;;;;2.33;2.13;;;22.90;70.00;;;;;;4947352;28;95411;-59
2022/01/10 03:16:10;;;;;;;3.08;2.47;;;22.90;69.90;;;;;;4940892;28;95590;-59
2022/01/10 03:18:42;;;;;;;2.30;2.13;;;22.90;69.90;;;;;;4949626;28;96666;-59
2022/01/10 03:21:14;;;;;;;2.60;2.40;;;23.00;69.80;;;;;;4947823;28;95942;-62
2022/01/10 03:23:45;;;;;;;2.35;2.15;;;23.00;69.80;;;;;;4948996;28;96227;-60
2022/01/10 03:26:16;;;;;;;2.75;2.15;;;23.10;69.70;;;;;;4962909;28;95917;-61
2022/01/10 03:28:48;;;;;;;2.60;2.40;;;23.10;69.70;;;;;;4946175;28;98533;-59
2022/01/10 03:31:21;;;;;;;3.08;2.78;;;23.10;69.60;;;;;;4951415;28;96870;-62
2022/01/10 03:33:54;;;;;;;2.20;2.00;;;23.10;69.60;;;;;;4947141;28;96069;-63
2022/01/10 03:36:25;;;;;;;2.33;2.13;;;23.20;69.50;;;;;;4945535;28;95539;-60
2022/01/10 03:38:57;;;;;;;2.63;2.20;;;23.20;69.50;;;;;;4962876;28;98442;-59
2022/01/10 03:41:27;;;;;;;2.63;2.38;;;23.20;69.50;;;;;;4964100;28;97206;-59
2022/01/10 03:43:57;;;;;;;2.75;1.90;;;23.30;69.40;;;;;;4948276;28;95282;-61
2022/01/10 03:46:29;;;;;;;2.53;2.33;;;23.30;69.30;;;;;;4957719;28;95712;-63
2022/01/10 03:49:02;;;;;;;2.58;2.38;;;23.40;69.20;;;;;;4946748;28;96719;-58
2022/01/10 03:51:34;;;;;;;2.20;2.03;;;23.40;69.20;;;;;;4949769;28;95859;-59
2022/01/10 03:54:05;;;;;;;2.17;1.92;;;23.40;69.80;;;;;;4964669;28;96056;-59
2022/01/10 03:56:37;;;;;;;2.45;2.15;;;23.50;69.20;;;;;;4958684;28;96128;-60
2022/01/10 03:59:11;;;;;;;2.63;2.42;;;23.50;68.70;;;;;;4949367;28;98712;-61
2022/01/10 04:01:42;;;;;;;2.92;2.70;;;23.40;66.50;;;;;;4938199;28;96001;-61
2022/01/10 04:04:15;;;;;;;3.95;2.47;;;23.20;65.80;;;;;;4972266;28;95830;-59
2022/01/10 04:06:46;;;;;;;2.65;1.98;;;23.10;65.00;;;;;;4951925;28;96071;-59
2022/01/10 04:09:19;;;;;;;5.38;2.47;;;23.10;64.70;;;;;;4950875;28;96764;-60
2022/01/10 04:11:50;;;;;;;2.75;2.55;;;23.10;64.60;;;;;;4956413;28;97841;-59
2022/01/10 04:14:24;;;;;;;7.97;3.08;;;23.10;64.00;;;;;;4949527;28;95771;-60
2022/01/10 04:16:55;;;;;;;4.07;2.30;;;23.10;63.20;;;;;;4939365;28;95818;-58
2022/01/10 04:19:26;;;;;;;2.25;2.10;;;23.10;62.90;;;;;;4964133;28;96794;-59
2022/01/10 04:21:58;;;;;;;2.70;2.15;;;23.10;62.90;;;;;;4949491;28;97645;-63
2022/01/10 04:24:29;;;;;;;2.78;2.53;;;23.30;63.40;;;;;;4948884;28;95862;-60
2022/01/10 04:27:01;;;;;;;2.55;2.25;;;23.40;63.50;;;;;;4942548;28;95718;-63
2022/01/10 04:29:31;;;;;;;2.65;2.22;;;23.50;63.50;;;;;;4950111;28;98559;-57
2022/01/10 04:32:03;;;;;;;2.75;2.40;;;23.60;63.50;;;;;;4957124;28;98466;-63
2022/01/10 04:34:36;;;;;;;2.45;2.10;;;23.60;63.50;;;;;;4950900;28;95254;-60
2022/01/10 04:37:07;;;;;;;2.35;2.17;;;23.70;63.40;;;;;;4948996;28;95409;-61
2022/01/10 04:39:42;;;;;;;3.13;2.17;;;23.70;63.50;;;;;;4963104;28;96277;-60
2022/01/10 04:42:13;;;;;;;2.63;2.42;;;23.80;63.60;;;;;;4951130;28;95502;-59
2022/01/10 04:44:44;;;;;;;2.50;2.30;;;23.90;63.70;;;;;;4930440;28;95680;-60
2022/01/10 04:47:15;;;;;;;3.33;2.00;;;23.90;63.70;;;;;;4956764;28;95932;-63
2022/01/10 04:52:36;;;;;;;2.30;2.10;;;23.90;63.70;;;;;;4941527;28;97413;-62
2022/01/10 04:55:08;;;;;;;2.83;2.50;;;24.00;63.80;;;;;;4947458;28;96134;-61
2022/01/10 04:57:41;;;;;;;2.35;2.15;;;24.00;63.80;;;;;;4950561;28;95689;-61
2022/01/10 05:00:16;;;;;;;3.83;2.60;;;24.00;63.70;;;;;;4947486;28;96143;-63
2022/01/10 05:02:51;;;;;;;2.08;1.85;;;24.10;63.80;;;;;;4936088;28;96034;-62
2022/01/10 05:05:21;;;;;;;2.15;2.05;;;24.10;63.70;;;;;;4945932;28;97160;-60
2022/01/10 05:07:52;;;;;;;2.58;2.38;;;24.10;63.70;;;;;;4947103;28;95933;-61
2022/01/10 05:10:24;;;;;;;3.38;2.20;;;24.20;63.80;;;;;;4946455;28;96084;-63
2022/01/10 05:12:55;;;;;;;1.98;1.77;;;24.20;63.80;;;;;;4946719;28;96457;-61
2022/01/10 05:15:26;;;;;;;2.35;2.15;;;24.20;63.70;;;;;;4939803;28;95979;-61
2022/01/10 05:17:58;;;;;;;2.25;2.05;;;24.30;63.70;;;;;;4946900;28;95704;-63
2022/01/10 05:20:29;;;;;;;2.67;2.47;;;24.30;63.70;;;;;;4948460;28;96107;-61
2022/01/10 05:22:59;;;;;;;2.35;2.15;;;24.40;63.80;;;;;;4962949;28;99645;-60
2022/01/10 05:25:36;;;;;;;2.22;1.75;;;24.40;63.70;;;;;;4948660;28;95775;-60
2022/01/10 05:28:09;;;;;;;2.10;2.00;;;24.40;63.70;;;;;;4947106;28;95310;-63
2022/01/10 05:30:42;;;;;;;1.92;1.83;;;24.40;63.70;;;;;;4937977;28;96129;-62
2022/01/10 05:33:16;;;;;;;2.35;2.15;;;24.50;63.70;;;;;;4956020;28;96365;-61
2022/01/10 05:35:51;;;;;;;3.10;1.90;;;24.50;63.70;;;;;;4944932;28;97791;-63
2022/01/10 05:38:26;;;;;;;2.38;2.17;;;24.50;63.70;;;;;;4943975;28;96020;-64
2022/01/10 05:40:57;;;;;;;2.08;1.98;;;24.50;63.60;;;;;;4947218;28;96823;-64
2022/01/10 05:43:28;;;;;;;2.25;2.05;;;24.60;63.60;;;;;;4949307;28;95416;-60
2022/01/10 05:45:58;;;;;;;;;;;24.50;63.50;;;;;;4941158;28;96833;-58
2022/01/10 05:48:31;;;;;;;2.08;1.95;;;24.60;63.50;;;;;;4930609;28;95929;-62
2022/01/10 05:51:05;;;;;;;1.80;1.70;;;24.60;63.50;;;;;;4945238;28;96616;-63
2022/01/10 05:53:38;;;;;;;2.58;2.25;;;24.60;63.50;;;;;;4963875;28;97419;-61
2022/01/10 05:56:11;;;;;;;1.73;1.63;;;24.70;63.50;;;;;;4946542;28;95347;-60
2022/01/10 05:58:54;;;;;;;2.75;2.10;;;24.60;63.50;;;;;;4947297;28;95885;-61
2022/01/10 06:01:25;;;;;;;2.13;2.03;;;24.70;63.50;;;;;;4942444;28;98247;-64
2022/01/10 06:04:04;;;;;;;2.17;2.08;;;24.70;63.40;;;;;;4938114;28;96048;-62
2022/01/10 06:06:40;;;;;;;2.03;1.92;;;24.70;63.30;;;;;;4947379;28;95845;-62
2022/01/10 06:09:12;;;;;;;1.77;1.67;;;24.80;63.40;;;;;;4948538;28;95787;-62
2022/01/10 06:11:43;;;;;;;2.50;2.30;;;24.80;63.30;;;;;;4960753;28;98450;-62
2022/01/10 06:14:16;;;;;;;2.15;1.95;;;24.80;63.30;;;;;;4961561;28;95864;-63
2022/01/10 06:16:49;;;;;;;2.10;1.90;;;24.80;63.20;;;;;;4955774;28;96018;-62
2022/01/10 06:19:21;;;;;;;2.10;1.90;;;24.80;63.20;;;;;;4962382;28;96078;-62
2022/01/10 06:21:52;;;;;;;2.10;1.90;;;24.80;63.20;;;;;;4963180;28;96407;-62
2022/01/10 06:24:27;;;;;;;2.42;2.00;;;24.80;63.20;;;;;;4961747;28;95792;-62
2022/01/10 06:26:59;;;;;;;2.05;1.77;;;24.90;63.20;;;;;;4979702;28;95721;-62
2022/01/10 06:29:29;;;;;;;2.03;1.92;;;24.90;63.10;;;;;;4963235;28;95703;-63
2022/01/10 06:31:59;;;;;;;2.80;2.58;;;24.90;63.10;;;;;;4939497;28;97871;-62
2022/01/10 06:34:30;;;;;;;2.40;2.22;;;24.90;63.10;;;;;;4946000;28;95812;-62
2022/01/10 06:37:02;;;;;;;2.97;2.67;;;24.90;63.10;;;;;;4943955;28;96169;-63
2022/01/10 06:39:40;;;;;;;2.28;2.08;;;24.90;63.10;;;;;;4946804;28;95548;-61
2022/01/10 06:42:13;;;;;;;2.13;2.00;;;25.00;63.10;;;;;;4932157;28;96373;-61
2022/01/10 06:44:43;;;;;;;2.03;1.90;;;25.00;63.00;;;;;;4944085;28;97456;-62
2022/01/10 06:47:17;;;;;;;2.05;1.95;;;25.00;63.00;;;;;;4940652;28;95308;-62
2022/01/10 06:49:49;;;;;;;2.50;2.30;;;25.00;61.70;;;;;;4951771;28;95209;-61
2022/01/10 06:52:20;;;;;;;2.60;2.35;;;25.00;63.00;;;;;;4950746;28;98253;-62
2022/01/10 06:54:54;;;;;;;2.33;2.13;;;25.00;62.90;;;;;;4949400;28;96042;-61
2022/01/10 06:57:26;;;;;;;2.60;2.40;;;25.00;62.90;;;;;;4983856;28;95530;-61
2022/01/10 06:59:58;;;;;;;2.70;2.50;;;25.00;62.70;;;;;;4948184;28;95485;-64
2022/01/10 07:02:31;;;;;;;2.33;2.15;;;25.00;62.90;;;;;;4931982;28;97929;-65
2022/01/10 07:05:01;;;;;;;2.30;2.10;;;25.10;62.80;;;;;;4947534;28;95847;-63
2022/01/10 07:07:31;;;;;;;2.00;1.90;;;25.10;62.80;;;;;;4956152;28;95918;-62
2022/01/10 07:10:12;;;;;;;6.38;2.55;;;25.10;62.80;;;;;;4950709;28;95388;-61
2022/01/10 07:12:43;;;;;;;2.22;2.13;;;25.10;62.70;;;;;;4950302;28;98504;-63
2022/01/10 07:15:15;;;;;;;2.30;2.10;;;25.20;62.80;;;;;;4958062;28;98149;-62
2022/01/10 07:17:50;;;;;;;2.17;2.08;;;25.20;62.80;;;;;;4949881;28;95802;-61
2022/01/10 07:20:22;;;;;;;2.15;2.05;;;25.20;62.70;;;;;;4948907;28;95325;-61
2022/01/10 07:22:54;;;;;;;2.88;2.67;;;25.20;62.70;;;;;;4950292;28;96398;-62
2022/01/10 07:25:25;;;;;;;2.55;2.08;;;25.20;62.60;;;;;;4951023;28;96166;-61
2022/01/10 07:27:55;;;;;;;2.35;2.15;;;25.20;62.50;;;;;;4966382;28;96135;-62
2022/01/10 07:30:26;;;;;;;2.20;2.10;;;25.20;62.50;;;;;;4944758;28;97743;-62
2022/01/10 07:32:57;;;;;;;2.85;2.65;;;25.20;62.40;;;;;;4951676;28;96178;-62
2022/01/10 07:35:28;;;;;;;2.65;2.45;;;25.20;62.40;;;;;;4951479;28;95699;-62
2022/01/10 07:37:58;;;;;;;3.00;2.65;;;25.20;62.50;;;;;;4952343;28;95788;-63
2022/01/10 07:40:30;;;;;;;2.53;2.33;;;25.20;62.40;;;;;;4951958;28;95727;-62
2022/01/10 07:43:00;;;;;;;2.72;2.53;;;25.30;62.50;;;;;;4944088;28;96088;-62
2022/01/10 07:45:37;;;;;;;2.60;2.40;;;25.30;63.10;;;;;;4942133;28;97457;-62
2022/01/10 07:48:10;;;;;;;2.67;2.40;;;25.30;62.40;;;;;;4952164;28;95699;-61
2022/01/10 07:50:42;;;;;;;2.63;2.40;;;25.30;62.40;;;;;;4951395;28;95811;-62
2022/01/10 07:53:14;;;;;;;3.15;2.88;;;25.30;62.40;;;;;;4966277;28;96873;-61
2022/01/10 07:55:47;;;;;;;3.17;2.88;;;25.30;62.30;;;;;;4950490;28;96006;-63
2022/01/10 07:58:19;;;;;;;2.85;2.65;;;25.30;62.30;;;;;;4948132;28;95703;-63
2022/01/10 08:00:52;;;;;;;2.30;2.10;;;25.30;62.30;;;;;;4941523;28;95866;-62
2022/01/10 08:03:23;;;;;;;2.63;2.42;;;25.30;62.30;;;;;;4954870;28;96400;-62
2022/01/10 08:05:55;;;;;;;2.67;2.47;;;25.30;62.30;;;;;;4948359;28;95882;-63
2022/01/10 08:08:26;;;;;;;2.83;2.40;;;25.30;62.20;;;;;;4950513;28;95764;-62
2022/01/10 08:10:56;;;;;;;;;;;25.30;62.20;;;;;;4963781;28;96381;-62
2022/01/10 08:13:27;;;;;;;3.05;2.47;;;25.30;62.10;;;;;;4950230;28;96455;-62
2022/01/10 08:15:58;;;;;;;3.28;2.70;;;25.30;62.10;;;;;;4936285;28;95768;-61
2022/01/10 08:18:30;;;;;;;3.63;2.47;;;25.30;62.10;;;;;;4951417;28;95792;-62
2022/01/10 08:21:03;;;;;;;2.95;2.75;;;25.30;62.00;;;;;;4943906;28;96141;-62
2022/01/10 08:23:34;;;;;;;3.20;2.90;;;25.30;62.10;;;;;;4951944;28;96186;-62
2022/01/10 08:26:08;;;;;;;2.95;2.75;;;25.30;62.00;;;;;;4951077;28;95704;-61
2022/01/10 08:28:41;;;;;;;2.90;2.67;;;25.30;62.00;;;;;;4951333;28;95723;-63
2022/01/10 08:31:12;;;;;;;3.00;2.80;;;25.30;61.90;;;;;;4923244;28;97925;-62
2022/01/10 08:33:48;;;;;;;3.85;3.45;;;25.30;61.80;;;;;;4945694;28;97007;-62
2022/01/10 08:36:19;;;;;;;8.43;5.00;;;25.30;61.80;;;;;;4947958;28;96515;-63
2022/01/10 08:38:53;;;;;;;12.48;5.32;;;25.10;57.80;;;;;;4942353;28;95784;-62
2022/01/10 08:41:23;;;;;;;11.15;6.60;;;24.80;57.30;;;;;;4948540;28;95338;-61
2022/01/10 08:43:56;;;;;;;10.00;6.03;;;24.70;56.80;;;;;;4949452;28;96132;-60
2022/01/10 08:46:27;;;;;;;8.93;6.40;;;24.60;55.80;;;;;;4956669;28;97395;-58
2022/01/10 08:48:58;;;;;;;7.32;5.57;;;24.50;54.90;;;;;;4950398;28;95757;-59
2022/01/10 08:51:30;;;;;;;7.85;5.95;;;24.40;54.30;;;;;;4949385;28;95694;-60
2022/01/10 08:54:01;;;;;;;10.60;5.95;;;24.30;53.80;;;;;;4948006;28;96689;-60
2022/01/10 08:56:36;;;;;;;12.00;6.95;;;24.30;53.40;;;;;;4948530;28;95884;-58
2022/01/10 08:59:08;;;;;;;8.55;6.07;;;24.20;53.20;;;;;;4946846;28;95333;-61
2022/01/10 09:01:39;;;;;;;6.93;5.70;;;24.10;52.60;;;;;;4949286;28;95408;-62
2022/01/10 09:04:16;;;;;;;6.63;5.50;;;24.10;52.30;;;;;;4939397;28;96082;-62
2022/01/10 09:06:48;;;;;;;7.55;6.38;;;24.10;52.20;;;;;;4946675;28;95847;-58
2022/01/10 09:09:20;;;;;;;6.47;5.68;;;24.10;51.80;;;;;;4947083;28;96140;-61
2022/01/10 09:11:51;;;;;;;7.28;5.65;;;24.00;51.70;;;;;;4947516;28;97741;-62
2022/01/10 09:14:22;;;;;;;6.93;5.72;;;24.00;51.70;;;;;;4944940;28;96608;-61
2022/01/10 09:16:54;;;;;;;6.38;5.78;;;24.00;51.70;;;;;;4954138;28;97837;-61
2022/01/10 09:19:26;;;;;;;7.68;5.57;;;24.00;51.80;;;;;;4945913;28;96202;-61
2022/01/10 09:21:58;;;;;;;6.90;4.88;;;24.00;52.00;;;;;;4949353;28;95565;-61
2022/01/10 09:24:29;;;;;;;7.00;5.50;;;24.00;52.10;;;;;;4944157;28;96061;-61
2022/01/10 09:26:59;;;;;;;;;;;24.00;52.20;;;;;;4946896;28;95611;-61
2022/01/10 09:29:28;;;;;;;;;;;24.00;52.30;;;;;;4949874;28;95979;-61
2022/01/10 09:31:57;;;;;;;;;;;23.90;52.30;;;;;;4941791;28;98254;-61
2022/01/10 09:34:27;;;;;;;;;;;24.00;52.70;;;;;;4949302;28;95499;-61
2022/01/10 09:36:58;;;;;;;;;;;24.00;53.10;;;;;;4944031;28;95527;-61
2022/01/10 09:39:29;;;;;;;;;;;24.00;53.20;;;;;;4947418;28;95531;-62
2022/01/10 09:41:59;;;;;;;;;;;24.00;53.30;;;;;;4948242;28;95672;-61
2022/01/10 09:44:29;;;;;;;;;;;24.00;53.40;;;;;;4977149;28;95981;-62
2022/01/10 09:46:59;;;;;;;;;;;23.90;53.40;;;;;;4942067;28;95520;-62
2022/01/10 09:49:29;;;;;;;;;;;24.00;53.60;;;;;;4950776;28;95875;-61
2022/01/10 09:52:00;;;;;;;;;;;23.90;53.70;;;;;;4951101;28;95717;-62
2022/01/10 09:54:31;;;;;;;;;;;23.90;54.50;;;;;;4949755;28;96105;-59
2022/01/10 09:57:02;;;;;;;;;;;23.90;54.10;;;;;;4949080;28;95783;-61
2022/01/10 09:59:33;;;;;;;;;;;23.90;54.50;;;;;;4948168;28;95615;-61
2022/01/10 10:02:05;;;;;;;;;;;23.90;54.80;;;;;;4936795;28;98809;-58
2022/01/10 10:04:38;;;;;;;;;;;23.90;55.00;;;;;;4942952;28;95880;-62
2022/01/10 10:07:08;;;;;;;;;;;23.90;54.90;;;;;;4949310;28;95849;-60
2022/01/10 10:09:39;;;;;;;;;;;23.90;56.10;;;;;;4949290;28;95340;-61
2022/01/10 10:12:10;;;;;;;;;;;23.90;55.60;;;;;;4964674;28;95968;-61
2022/01/10 10:14:41;;;;;;;;;;;23.80;55.60;;;;;;4933731;28;97972;-61
2022/01/10 10:17:17;;;;;;;;;;;23.90;55.90;;;;;;4938974;28;98595;-61
2022/01/10 10:19:48;;;;;;;;;;;23.80;56.20;;;;;;4946893;28;95762;-61
2022/01/10 10:22:19;;;;;;;;;;;23.90;56.70;;;;;;4949072;28;95858;-60
2022/01/10 10:24:50;;;;;;;;;;;23.80;56.90;;;;;;4949408;28;96402;-60
2022/01/10 10:27:21;;;;;;;;;;;23.80;57.40;;;;;;4950020;28;98062;-60
2022/01/10 10:30:13;;;;;;;;;;;23.90;57.70;;;;;;4955417;28;95818;-62
2022/01/10 10:32:42;;;;;;;;;;;23.90;58.10;;;;;;4948830;28;95614;-61
2022/01/10 10:35:12;;;;;;;;;;;23.90;58.50;;;;;;4949635;28;96075;-61
2022/01/10 10:37:44;;;;;;;;;;;23.90;58.70;;;;;;4950019;28;96051;-62
2022/01/10 10:40:16;;;;;;;;;;;23.90;59.20;;;;;;4947692;28;97199;-61
2022/01/10 10:42:45;;;;;;;;;;;24.00;59.40;;;;;;4948038;28;96527;-59
2022/01/10 10:45:16;;;;;;;;;;;23.90;59.40;;;;;;4939205;28;96231;-60
2022/01/10 10:47:47;;;;;;;;;;;23.90;59.70;;;;;;4946286;28;96195;-62
2022/01/10 10:50:25;;;;;;;;;;;23.90;60.00;;;;;;4947298;28;95969;-60
2022/01/10 10:52:56;;;;;;;;;;;23.80;60.30;;;;;;4948108;28;95780;-62
2022/01/10 10:55:28;;;;;;;;;;;23.90;60.60;;;;;;4948988;28;96246;-62
2022/01/10 10:58:01;;;;;;;;;;;23.80;60.90;;;;;;4948895;28;95844;-61
2022/01/10 11:00:31;;;;;;;;;;;23.80;61.20;;;;;;4939728;28;98233;-62
2022/01/10 11:03:03;;;;;;;;;;;23.80;61.40;;;;;;4935988;28;95943;-62
2022/01/10 11:05:34;;;;;;;;;;;23.80;61.60;;;;;;4940037;28;95773;-60
2022/01/10 11:08:04;;;;;;;;;;;23.80;61.80;;;;;;4946462;28;95807;-61
2022/01/10 11:10:36;;;;;;;;;;;23.80;62.00;;;;;;4948340;28;95687;-61
2022/01/10 11:13:07;;;;;;;;;;;23.80;62.10;;;;;;4947516;28;95905;-61
2022/01/10 11:15:38;;;;;;;;;;;23.80;62.30;;;;;;4939671;28;96058;-61
2022/01/10 11:18:09;;;;;;;;;;;23.80;62.40;;;;;;4961793;28;96510;-61
2022/01/10 11:20:44;;;;;;;;;;;23.80;62.50;;;;;;4947496;28;96108;-60
2022/01/10 11:23:40;;;;;;;;;;;23.80;62.70;;;;;;4947718;28;97049;-60
2022/01/10 11:26:11;;;;;;;;;;;23.80;62.70;;;;;;4947334;28;96953;-62
2022/01/10 11:28:48;;;;;;;;;;;23.80;62.50;;;;;;4949263;28;98616;-62
2022/01/10 11:31:23;;;;;;;;;;;23.70;62.20;;;;;;4942445;28;98410;-61
2022/01/10 11:33:55;;;;;;;;;;;23.70;62.10;;;;;;4977435;28;96560;-62
2022/01/10 11:36:26;;;;;;;;;;;23.70;62.00;;;;;;4952140;28;96321;-61
2022/01/10 11:39:02;;;;;;;;;;;23.70;62.00;;;;;;4949410;28;96173;-62
2022/01/10 11:41:32;;;;;;;;;;;23.70;61.90;;;;;;4948748;28;96296;-62
2022/01/10 11:44:08;;;;;;;;;;;23.70;62.10;;;;;;4950287;28;95594;-63
2022/01/10 11:46:39;;;;;;;;;;;23.70;62.00;;;;;;4943372;28;96430;-63
2022/01/10 11:49:17;;;;;;;;;;;23.70;61.90;;;;;;4950010;28;95670;-62
2022/01/10 11:51:51;;;;;;;;;;;23.60;61.70;;;;;;4965011;28;95733;-61
2022/01/10 11:54:28;;;;;;;;;;;23.60;61.60;;;;;;4950424;28;95161;-62
2022/01/10 11:57:19;;;;;;;;;;;23.60;61.50;;;;;;4948547;28;97034;-62
2022/01/10 11:59:53;;;;;;;;;;;23.60;61.30;;;;;;4952754;28;95525;-63
2022/01/10 12:02:26;;;;;;;;;;;23.50;61.50;;;;;;4934777;28;95448;-62
2022/01/10 12:05:00;;;;;;;;;;;23.60;62.10;;;;;;4944059;28;95926;-62
2022/01/10 12:07:33;;;;;;;;;;;23.50;63.20;;;;;;4951439;28;96459;-63
2022/01/10 12:10:25;;;;;;;;;;;23.60;63.10;;;;;;4951187;28;96345;-64
2022/01/10 12:13:05;;;;;;;;;;;23.50;62.90;;;;;;4950611;28;96001;-61
2022/01/10 12:15:36;;;;;;;;;;;23.50;63.30;;;;;;4974760;28;96385;-63
2022/01/10 12:18:08;;;;;;;;;;;23.50;63.30;;;;;;4947446;28;96083;-62
2022/01/10 12:20:39;;;;;;;;;;;23.50;64.20;;;;;;4951341;28;95780;-62
2022/01/10 12:23:11;;;;;;;;;;;23.50;63.50;;;;;;4949092;28;96718;-62
2022/01/10 12:25:44;;;;;;;;;;;23.40;63.20;;;;;;4949333;28;98227;-61
2022/01/10 12:28:13;;;;;;;;;;;23.40;63.50;;;;;;4949310;28;96356;-60
2022/01/10 12:30:44;;;;;;;;;;;23.40;63.80;;;;;;4955636;28;95942;-59
2022/01/10 12:33:14;;;;;;;;;;;23.40;64.00;;;;;;4950070;28;95812;-60
2022/01/10 12:35:43;;;;;;;;;;;23.40;64.10;;;;;;4952152;28;96409;-61
2022/01/10 12:38:14;;;;;;;;;;;23.40;64.30;;;;;;4950916;28;96785;-59
2022/01/10 12:40:46;;;;;;;;;;;23.40;64.70;;;;;;4951684;28;95774;-61
2022/01/10 12:43:17;;;;;;;;;;;23.40;65.00;;;;;;4950765;28;95618;-61
2022/01/10 12:45:48;;;;;;;;;;;23.40;65.80;;;;;;4937189;28;95804;-63
2022/01/10 12:48:19;;;;;;;;;;;23.40;65.40;;;;;;4950880;28;97294;-62
2022/01/10 12:50:52;;;;;;;;;;;23.40;65.70;;;;;;4943684;28;97106;-63
2022/01/10 12:53:23;;;;;;;;;;;23.40;66.20;;;;;;4950674;28;95359;-63
2022/01/10 12:55:55;;;;;;;;;;;23.40;66.40;;;;;;4950294;28;95195;-64
2022/01/10 12:58:26;;;;;;;;;;;23.40;66.40;;;;;;4946603;28;97273;-63
2022/01/10 13:00:57;;;;;;;;;;;23.50;66.80;;;;;;4939645;28;96406;-62
2022/01/10 13:03:29;;;;;;;;;;;23.50;66.90;;;;;;4935993;28;95820;-60
2022/01/10 13:06:01;;;;;;;;;;;23.60;67.40;;;;;;4941617;28;96068;-63
2022/01/10 13:08:37;;;;;;;;;;;23.60;67.60;;;;;;4949197;28;96400;-61
2022/01/10 13:11:18;;;;;;;;;;;23.60;67.80;;;;;;4949051;28;95867;-64
2022/01/10 13:13:48;;;;;;;;;;;23.60;68.10;;;;;;4949829;28;95169;-62
2022/01/10 13:16:23;;;;;;;;;;;23.60;68.10;;;;;;4935239;28;98461;-63
2022/01/10 13:19:01;;;;;;;;;;;23.70;68.30;;;;;;4962796;28;96227;-64
2022/01/10 13:21:46;;;;;;;;;;;23.60;68.50;;;;;;4963068;28;96155;-63
2022/01/10 13:24:20;;;;;;;;;;;23.70;68.80;;;;;;4957610;28;95859;-63
2022/01/10 13:27:18;;;;;;;;;;;23.70;69.70;;;;;;4967283;28;95629;-63
2022/01/10 13:29:54;;;;;;;;;;;23.80;69.70;;;;;;4968457;28;98754;-62
2022/01/10 13:32:30;;;;;;;;;;;24.00;69.40;;;;;;4958670;28;95764;-63
2022/01/10 13:35:04;;;;;;;;;;;24.10;68.90;;;;;;4964512;28;96242;-63
2022/01/10 13:37:46;;;;;;;;;;;24.30;68.60;;;;;;4950831;28;95598;-62
2022/01/10 13:40:19;;;;;;;;;;;24.40;68.40;;;;;;4950858;28;98371;-62
2022/01/10 13:42:59;;;;;;;;;;;24.40;68.00;;;;;;4968713;28;96068;-63
2022/01/10 13:45:42;;;;;;;;;;;24.50;67.80;;;;;;4959107;28;95749;-65
2022/01/10 13:48:31;;;;;;;;;;;24.60;67.60;;;;;;4962736;28;95570;-63
2022/01/10 13:51:03;;;;;;;;;;;24.70;67.50;;;;;;4976511;28;98683;-64
2022/01/10 13:53:43;;;;;;;;;;;24.80;67.20;;;;;;4950320;28;96311;-63
2022/01/10 13:56:14;;;;;;;;;;;25.00;67.10;;;;;;4950483;28;96907;-64